Data for 04/21/2013

Time Sea-Level Adjusted Pressure Absolute Pressure Temperature Relative Humidity Dew Point   
(mb) (inHg) (mb) (inHg) (C) (F) (%) (C) (F)
00:05 1018 30.06 847 25.01 4.1 39.3 59 -3.2 26.2
00:10 1018 30.06 847 25.01 4.2 39.5 59 -3.2 26.2
00:15 1018 30.06 847 25.01 4.1 39.4 60 -3 26.7
00:20 1018 30.06 847 25.01 3.9 39 60 -3.2 26.3
00:25 1018 30.06 847 25.01 4 39.2 60 -3.1 26.3
00:30 1018 30.06 847 25.01 3.9 39 61 -3.1 26.5
00:35 1018 30.06 847 25.01 3.7 38.7 60 -3.4 25.9
00:40 1018 30.06 847 25.01 3.7 38.7 59 -3.6 25.5
00:45 1018 30.06 847 25.01 3.6 38.4 60 -3.5 25.6
00:50 1018 30.06 847 25.01 3.3 37.9 60 -3.7 25.4
00:55 1018 30.06 847 25.01 3.3 37.9 60 -3.8 25.1
01:00 1018 30.06 847 25.01 3.2 37.8 60 -3.7 25.3
01:05 1018 30.06 847 25.01 3.1 37.5 60 -3.9 25
01:10 1018 30.06 847 25.01 3.2 37.7 60 -4 24.9
01:15 1018 30.06 847 25.01 3.2 37.7 59 -4.1 24.6
01:20 1018 30.06 847 25.01 3.2 37.8 59 -4 24.7
01:25 1018 30.06 847 25.01 3.2 37.8 60 -3.9 25
01:30 1018 30.06 847 25.01 3.3 38 60 -3.8 25.2
01:35 1018 30.06 847 25.01 3.2 37.8 60 -3.9 25.1
01:40 1018 30.06 847 25.01 2.8 37 62 -3.8 25.2
01:45 1018 30.06 847 25.01 2.6 36.7 63 -3.7 25.3
01:50 1018 30.06 847 25.01 2.6 36.7 63 -3.8 25.2
01:55 1018 30.06 847 25.01 2.6 36.7 64 -3.6 25.5
02:00 1017 30.03 847 25.01 2.7 36.9 63 -3.7 25.3
02:05 1017 30.03 847 25.01 2.8 37.1 63 -3.5 25.8
02:10 1017 30.03 847 25.01 2.7 36.8 62 -3.8 25.2
02:15 1017 30.03 847 25.01 2.6 36.7 63 -3.8 25.2
02:20 1017 30.03 847 25.01 2.6 36.6 63 -3.7 25.4
02:25 1017 30.03 847 25.01 2.2 36 64 -3.8 25.1
02:30 1017 30.03 846 24.98 2.2 36 63 -4.1 24.6
02:35 1017 30.03 846 24.98 2.3 36.2 62 -4.2 24.5
02:40 1017 30.03 846 24.98 2.3 36.2 63 -4 24.7
02:45 1017 30.03 846 24.98 2.3 36.1 63 -4 24.8
02:50 1017 30.03 846 24.98 2.2 35.9 65 -3.6 25.5
02:55 1017 30.03 846 24.98 2.2 35.9 62 -4.4 24.1
03:00 1017 30.03 846 24.98 2.6 36.7 58 -5 23.1
03:05 1017 30.03 846 24.98 2.7 36.9 57 -5.1 22.9
03:10 1017 30.03 846 24.98 2.8 37.1 55 -5.2 22.6
03:15 1017 30.03 846 24.98 3 37.4 53 -5.7 21.8
03:20 1017 30.03 846 24.98 3.1 37.6 53 -5.5 22.1
03:25 1017 30.03 846 24.98 3 37.5 54 -5.3 22.4
03:30 1017 30.03 846 24.98 3.1 37.5 55 -5.2 22.6
03:35 1017 30.03 846 24.98 3.1 37.5 54 -5.2 22.6
03:40 1017 30.03 846 24.98 2.9 37.3 57 -4.8 23.4
03:45 1017 30.03 846 24.98 2.8 37.1 54 -5.6 21.9
03:50 1017 30.03 846 24.98 3.3 37.9 52 -5.7 21.7
03:55 1017 30.03 846 24.98 3.5 38.2 51 -5.7 21.8
04:00 1017 30.03 846 24.98 3.7 38.6 49 -5.9 21.3
04:05 1017 30.03 846 24.98 4 39.1 47 -6.3 20.6
04:10 1017 30.03 846 24.98 4.3 39.7 46 -6.2 20.8
04:15 1017 30.03 846 24.98 4.5 40 46 -6.3 20.7
04:20 1017 30.03 846 24.98 4.6 40.2 45 -6.4 20.4
04:25 1017 30.03 846 24.98 4.7 40.4 45 -6.2 20.8
04:30 1017 30.03 846 24.98 4.6 40.2 46 -6 21.1
04:35 1017 30.03 846 24.98 4.4 39.9 47 -6 21.2
04:40 1017 30.03 846 24.98 4.3 39.7 47 -6.1 21
04:45 1017 30.03 846 24.98 4.3 39.7 47 -6.1 21
04:50 1017 30.03 846 24.98 4.2 39.6 48 -5.9 21.4
04:55 1017 30.03 846 24.98 4.2 39.5 48 -5.8 21.6
05:00 1017 30.03 846 24.98 4.1 39.4 49 -5.8 21.6
05:05 1017 30.03 846 24.98 4.1 39.3 47 -6.3 20.6
05:10 1017 30.03 846 24.98 4.2 39.6 46 -6.5 20.4
05:15 1017 30.03 846 24.98 4.4 39.9 46 -6.4 20.5
05:20 1017 30.03 846 24.98 4.4 39.8 46 -6.3 20.6
05:25 1017 30.03 846 24.98 4.3 39.8 48 -5.7 21.7
05:30 1017 30.03 846 24.98 4.2 39.5 49 -5.7 21.7
05:35 1017 30.03 846 24.98 4.1 39.3 49 -5.8 21.5
05:40 1017 30.03 846 24.98 4.1 39.3 46 -6.4 20.4
05:45 1017 30.03 846 24.98 4.3 39.7 45 -6.5 20.2
05:50 1017 30.03 846 24.98 4.4 40 45 -6.5 20.3
05:55 1017 30.03 846 24.98 4.5 40.2 45 -6.5 20.3
06:00 1017 30.03 846 24.98 4.6 40.2 46 -6 21.2
06:05 1017 30.03 846 24.98 4.4 39.9 47 -5.9 21.5
06:10 1017 30.03 847 25.01 4.3 39.7 48 -5.9 21.4
06:15 1017 30.03 847 25.01 4.3 39.8 47 -5.9 21.4
06:20 1017 30.03 847 25.01 4.4 39.9 48 -5.8 21.6
06:25 1018 30.06 847 25.01 4.4 39.9 48 -5.7 21.7
06:30 1018 30.06 847 25.01 4.4 39.9 48 -5.7 21.7
06:35 1018 30.06 847 25.01 4.3 39.8 48 -5.6 21.9
06:40 1018 30.06 847 25.01 4.1 39.4 53 -4.6 23.8
06:45 1018 30.06 847 25.01 3.3 37.9 62 -3.4 25.9
06:50 1018 30.06 847 25.01 2.5 36.6 66 -3.2 26.2
06:55 1018 30.06 847 25.01 2.1 35.8 68 -3.3 26.1
07:00 1018 30.06 847 25.01 1.9 35.4 69 -3.2 26.3
07:05 1018 30.06 847 25.01 1.6 34.8 71 -3.1 26.4
07:10 1018 30.06 847 25.01 1.3 34.4 72 -3.2 26.3
07:15 1018 30.06 847 25.01 1.3 34.3 72 -3.2 26.3
07:20 1018 30.06 847 25.01 1.4 34.5 72 -3.1 26.3
07:25 1018 30.06 848 25.04 1.4 34.6 72 -3.2 26.3
07:30 1019 30.09 848 25.04 1.4 34.5 72 -3.1 26.5
07:35 1018 30.06 848 25.04 1.2 34.1 74 -2.9 26.8
07:40 1018 30.06 848 25.04 0.8 33.4 76 -3 26.7
07:45 1018 30.06 848 25.04 0.7 33.3 75 -3.3 26.1
07:50 1018 30.06 847 25.01 1 33.7 74 -3.2 26.3
07:55 1018 30.06 848 25.04 1.2 34.1 73 -3.1 26.4
08:00 1018 30.06 848 25.04 1 33.8 75 -3 26.6
08:05 1018 30.06 848 25.04 0.7 33.2 75 -3.3 26.1
08:10 1018 30.06 848 25.04 1 33.7 73 -3.3 26
08:15 1018 30.06 848 25.04 1.2 34.2 71 -3.4 26
08:20 1018 30.06 848 25.04 1.4 34.5 71 -3.3 26
08:25 1018 30.06 848 25.04 1.5 34.8 70 -3.4 25.9
08:30 1018 30.06 848 25.04 2 35.6 66 -3.6 25.5
08:35 1018 30.06 848 25.04 2.3 36.2 65 -3.6 25.5
08:40 1018 30.06 848 25.04 2.7 36.9 63 -3.6 25.5
08:45 1018 30.06 847 25.01 2.3 36.2 66 -3.4 25.9
08:50 1018 30.06 847 25.01 3 37.5 61 -3.7 25.3
08:55 1018 30.06 847 25.01 3.3 38 62 -3.3 26
09:00 1018 30.06 847 25.01 3.6 38.4 59 -3.7 25.3
09:05 1018 30.06 847 25.01 4.3 39.7 58 -3.1 26.3
09:10 1018 30.06 847 25.01 4.7 40.4 57 -3.2 26.3
09:15 1018 30.06 847 25.01 4.1 39.5 60 -3 26.6
09:20 1018 30.06 847 25.01 3.8 38.8 60 -3.1 26.3
09:25 1018 30.06 847 25.01 3.9 39.1 59 -3.4 25.9
09:30 1018 30.06 847 25.01 4.2 39.5 57 -3.5 25.7
09:35 1018 30.06 847 25.01 4.3 39.8 60 -2.8 27
09:40 1018 30.06 847 25.01 3.2 37.7 62 -3.4 25.9
09:45 1018 30.06 847 25.01 3.9 39.1 57 -3.9 25
09:50 1018 30.06 847 25.01 4.6 40.3 53 -4.1 24.7
09:55 1018 30.06 847 25.01 4.7 40.4 56 -3.3 26
10:00 1018 30.06 847 25.01 4.2 39.6 59 -3.1 26.4
10:05 1018 30.06 847 25.01 4.1 39.5 55 -4 24.8
10:10 1018 30.06 847 25.01 4.9 40.7 55 -3.4 25.8
10:15 1018 30.06 847 25.01 5.4 41.7 51 -3.9 25.1
10:20 1018 30.06 847 25.01 5.8 42.4 52 -3.4 25.9
10:25 1018 30.06 847 25.01 5.7 42.3 52 -3.5 25.8
10:30 1018 30.06 847 25.01 5 41.1 54 -3.5 25.7
10:35 1018 30.06 847 25.01 5.8 42.4 49 -4 24.8
10:40 1018 30.06 847 25.01 6.5 43.7 47 -4 24.8
10:45 1018 30.06 847 25.01 6.5 43.7 48 -3.8 25.2
10:50 1018 30.06 847 25.01 5.7 42.2 51 -3.7 25.3
10:55 1018 30.06 847 25.01 5.7 42.2 49 -4.3 24.3
11:00 1018 30.06 847 25.01 5.9 42.6 49 -4 24.8
11:05 1018 30.06 847 25.01 6.5 43.7 47 -3.9 25
11:10 1017 30.03 847 25.01 7.1 44.8 47 -3.4 26
11:15 1017 30.03 847 25.01 7 44.6 47 -3.6 25.6
11:20 1017 30.03 846 24.98 6.7 44 48 -3.7 25.4
11:25 1017 30.03 846 24.98 6.7 44.1 49 -3.2 26.2
11:30 1017 30.03 846 24.98 5.6 42 51 -3.9 25.1
11:35 1017 30.03 846 24.98 5.9 42.7 48 -4.2 24.4
11:40 1017 30.03 846 24.98 6.6 43.9 48 -3.5 25.7
11:45 1017 30.03 846 24.98 6.4 43.4 47 -4.1 24.7
11:50 1017 30.03 846 24.98 6.3 43.3 51 -3.2 26.3
11:55 1017 30.03 846 24.98 5.1 41.3 52 -3.9 24.9
12:00 1017 30.03 846 24.98 6 42.8 49 -3.8 25.2
12:05 1017 30.03 846 24.98 5.8 42.4 50 -3.9 25
12:10 1017 30.03 846 24.98 5.9 42.6 50 -3.7 25.3
12:15 1017 30.03 846 24.98 6.6 43.9 47 -3.9 25
12:20 1017 30.03 846 24.98 7 44.7 47 -3.5 25.7
12:25 1017 30.03 846 24.98 6.8 44.3 47 -3.7 25.3
12:30 1017 30.03 846 24.98 6.4 43.5 49 -3.6 25.5
12:35 1017 30.03 846 24.98 6.6 43.9 47 -3.9 25
12:40 1017 30.03 846 24.98 7.1 44.8 46 -3.7 25.3
12:45 1017 30.03 846 24.98 7.2 44.9 45 -3.9 25
12:50 1016 30 846 24.98 7.4 45.4 47 -3.2 26.2
12:55 1016 30 846 24.98 6.4 43.6 48 -3.8 25.2
13:00 1016 30 846 24.98 5.7 42.3 51 -3.5 25.6
13:05 1016 30 846 24.98 5 40.9 54 -3.6 25.6
13:10 1016 30 846 24.98 4.7 40.4 53 -4.1 24.6
13:15 1016 30 846 24.98 4.7 40.5 54 -3.8 25.1
13:20 1016 30 846 24.98 4.7 40.5 53 -4 24.9
13:25 1016 30 846 24.98 4.6 40.3 53 -4.1 24.7
13:30 1016 30 846 24.98 4.9 40.9 53 -3.9 24.9
13:35 1016 30 846 24.98 5.1 41.2 53 -3.6 25.5
13:40 1016 30 846 24.98 4.3 39.8 54 -4.1 24.6
13:45 1016 30 845 24.95 4.8 40.7 53 -3.9 25
13:50 1016 30 845 24.95 4.7 40.4 55 -3.7 25.4
13:55 1016 30 845 24.95 4.5 40.1 55 -3.9 25
14:00 1016 30 845 24.95 4.7 40.4 54 -3.8 25.2
14:05 1016 30 845 24.95 4.3 39.8 56 -3.7 25.3
14:10 1016 30 845 24.95 4.1 39.3 56 -3.9 25
14:15 1016 30 845 24.95 3.7 38.6 58 -3.7 25.3
14:20 1016 30 845 24.95 3.5 38.3 58 -3.9 25
14:25 1016 30 845 24.95 3 37.4 61 -3.8 25.2
14:30 1016 30 845 24.95 2.6 36.6 62 -4 24.8
14:35 1016 30 845 24.95 2.3 36.1 64 -3.8 25.1
14:40 1016 30 845 24.95 2.1 35.7 66 -3.6 25.6
14:45 1016 30 845 24.95 1.7 35 69 -3.4 25.8
14:50 1016 30 845 24.95 1.3 34.3 70 -3.6 25.5
14:55 1016 30 846 24.98 1.1 34 69 -3.9 25.1
15:00 1016 30 846 24.98 1.1 33.9 70 -3.8 25.1
15:05 1017 30.03 846 24.98 0.9 33.6 71 -3.8 25.1
15:10 1017 30.03 846 24.98 0.8 33.4 75 -3.2 26.3
15:15 1017 30.03 846 24.98 0.4 32.8 80 -2.6 27.3
15:20 1017 30.03 846 24.98 0.1 32.1 82 -2.6 27.3
15:25 1017 30.03 846 24.98 -0.3 31.4 86 -2.4 27.6
15:30 1017 30.03 846 24.98 -0.5 31 86 -2.7 27.2
15:35 1017 30.03 846 24.98 -0.8 30.5 87 -2.7 27.2
15:40 1016 30 846 24.98 -0.9 30.3 88 -2.7 27.2
15:45 1017 30.03 846 24.98 -1 30.2 86 -3.1 26.3
15:50 1017 30.03 846 24.98 -1 30.2 83 -3.5 25.7
15:55 1017 30.03 846 24.98 -0.9 30.4 82 -3.7 25.4
16:00 1017 30.03 846 24.98 -0.8 30.6 77 -4.4 24.1
16:05 1017 30.03 846 24.98 -0.8 30.5 76 -4.6 23.7
16:10 1017 30.03 846 24.98 -0.8 30.6 76 -4.6 23.8
16:15 1017 30.03 846 24.98 -0.9 30.4 75 -4.7 23.5
16:20 1017 30.03 846 24.98 -1.1 30 76 -4.9 23.2
16:25 1017 30.03 846 24.98 -1.3 29.6 76 -5 23
16:30 1017 30.03 846 24.98 -1.4 29.5 77 -4.9 23.2
16:35 1017 30.03 846 24.98 -1.4 29.4 79 -4.5 23.8
16:40 1017 30.03 846 24.98 -1.6 29 82 -4.3 24.2
16:45 1017 30.03 846 24.98 -2 28.4 86 -4.1 24.7
16:50 1017 30.03 846 24.98 -2.3 27.8 89 -4 24.9
16:55 1017 30.03 846 24.98 -2.4 27.7 87 -4.3 24.3
17:00 1017 30.03 846 24.98 -2.2 28 84 -4.6 23.8
17:05 1017 30.03 846 24.98 -2 28.3 81 -4.8 23.3
17:10 1017 30.03 846 24.98 -1.9 28.5 80 -4.9 23.2
17:15 1017 30.03 846 24.98 -1.9 28.5 78 -5.3 22.5
17:20 1017 30.03 846 24.98 -2 28.4 77 -5.5 22.1
17:25 1017 30.03 846 24.98 -2 28.4 75 -5.9 21.4
17:30 1017 30.03 846 24.98 -1.9 28.5 74 -6 21.3
17:35 1017 30.03 847 25.01 -1.9 28.5 75 -5.9 21.4
17:40 1017 30.03 847 25.01 -2 28.4 75 -5.9 21.5
17:45 1017 30.03 847 25.01 -2.1 28.2 76 -5.8 21.5
17:50 1017 30.03 847 25.01 -2.2 28.1 75 -6.1 21.1
17:55 1017 30.03 847 25.01 -2.2 28.1 75 -6.1 21.1
18:00 1017 30.03 847 25.01 -2.2 28 74 -6.2 20.8
18:05 1017 30.03 847 25.01 -2.3 27.9 75 -6.1 21.1
18:10 1018 30.06 847 25.01 -2.4 27.7 75 -6.3 20.7
18:15 1017 30.03 847 25.01 -2.5 27.5 77 -5.9 21.4
18:20 1017 30.03 847 25.01 -2.6 27.3 78 -5.9 21.3
18:25 1018 30.06 847 25.01 -2.7 27.2 78 -6 21.2
18:30 1018 30.06 847 25.01 -2.7 27.1 77 -6.1 20.9
18:35 1018 30.06 847 25.01 -2.7 27.2 76 -6.3 20.7
18:40 1018 30.06 847 25.01 -2.6 27.2 75 -6.4 20.5
18:45 1018 30.06 847 25.01 -2.7 27.2 75 -6.5 20.3
18:50 1018 30.06 847 25.01 -2.6 27.2 74 -6.7 20
18:55 1018 30.06 847 25.01 -2.6 27.3 72 -7 19.4
19:00 1018 30.06 847 25.01 -2.6 27.2 74 -6.7 19.9
19:05 1018 30.06 847 25.01 -2.7 27.1 75 -6.6 20.1
19:10 1018 30.06 847 25.01 -2.8 26.9 75 -6.7 19.9
19:15 1018 30.06 848 25.04 -2.9 26.8 76 -6.5 20.3
19:20 1019 30.09 848 25.04 -2.9 26.7 76 -6.6 20.2
19:25 1018 30.06 848 25.04 -3 26.6 76 -6.7 20
19:30 1018 30.06 848 25.04 -2.9 26.7 75 -6.8 19.7
19:35 1019 30.09 848 25.04 -2.9 26.7 74 -6.9 19.7
19:40 1019 30.09 848 25.04 -3 26.6 77 -6.5 20.4
19:45 1019 30.09 848 25.04 -3.1 26.4 78 -6.4 20.4
19:50 1019 30.09 848 25.04 -3.2 26.2 81 -6 21.1
19:55 1019 30.09 848 25.04 -3.4 25.9 82 -6 21.2
20:00 1019 30.09 848 25.04 -3.5 25.7 84 -5.8 21.6
20:05 1019 30.09 848 25.04 -3.5 25.7 83 -6 21.2
20:10 1019 30.09 848 25.04 -3.6 25.6 83 -6 21.1
20:15 1019 30.09 848 25.04 -3.6 25.6 83 -6 21.2
20:20 1019 30.09 849 25.07 -3.5 25.7 81 -6.3 20.7
20:25 1019 30.09 849 25.07 -3.5 25.6 82 -6.2 20.8
20:30 1019 30.09 849 25.07 -3.5 25.6 82 -6.2 20.8
20:35 1020 30.12 849 25.07 -3.5 25.7 81 -6.3 20.6
20:40 1020 30.12 849 25.07 -3.4 25.8 80 -6.3 20.6
20:45 1020 30.12 849 25.07 -3.4 25.9 79 -6.6 20.2
20:50 1020 30.12 849 25.07 -3.3 26 78 -6.6 20.2
20:55 1020 30.12 849 25.07 -3.3 26.1 78 -6.5 20.3
21:00 1020 30.12 849 25.07 -3.3 26.1 77 -6.7 20
21:05 1020 30.12 849 25.07 -3.2 26.2 77 -6.7 19.9
21:10 1020 30.12 849 25.07 -3.2 26.3 75 -6.9 19.6
21:15 1020 30.12 849 25.07 -3.2 26.2 78 -6.5 20.4
21:20 1020 30.12 849 25.07 -3.4 25.9 79 -6.6 20.2
21:25 1020 30.12 849 25.07 -3.5 25.7 79 -6.6 20.1
21:30 1020 30.12 849 25.07 -3.6 25.5 78 -6.8 19.7
21:35 1020 30.12 849 25.07 -3.7 25.3 80 -6.7 19.9
21:40 1020 30.12 849 25.07 -3.9 25 81 -6.8 19.8
21:45 1020 30.12 849 25.07 -4.1 24.6 81 -6.9 19.5
21:50 1020 30.12 849 25.07 -4.3 24.3 81 -7 19.4
21:55 1020 30.12 849 25.07 -4.4 24.1 81 -7.2 19.1
22:00 1020 30.12 849 25.07 -4.5 23.9 80 -7.4 18.6
22:05 1020 30.12 850 25.1 -4.5 23.8 80 -7.5 18.5
22:10 1020 30.12 850 25.1 -4.6 23.8 80 -7.5 18.5
22:15 1020 30.12 850 25.1 -4.6 23.7 80 -7.5 18.5
22:20 1021 30.15 850 25.1 -4.7 23.5 79 -7.8 17.9
22:25 1021 30.15 850 25.1 -4.9 23.3 79 -8 17.6
22:30 1020 30.12 850 25.1 -4.9 23.1 79 -8.1 17.5
22:35 1021 30.15 850 25.1 -5 23 79 -8.1 17.4
22:40 1021 30.15 850 25.1 -5.1 22.9 79 -8.2 17.3
22:45 1021 30.15 850 25.1 -5 23 79 -8.1 17.4
22:50 1021 30.15 850 25.1 -5.1 22.9 79 -8.2 17.3
22:55 1021 30.15 850 25.1 -5.1 22.9 78 -8.3 17.1
23:00 1021 30.15 850 25.1 -5.1 22.8 78 -8.4 16.9
23:05 1021 30.15 850 25.1 -5.1 22.8 78 -8.4 16.8
23:10 1021 30.15 850 25.1 -5.1 22.8 77 -8.5 16.7
23:15 1021 30.15 850 25.1 -5.1 22.9 77 -8.5 16.7
23:20 1021 30.15 850 25.1 -5 22.9 76 -8.6 16.5
23:25 1021 30.15 850 25.1 -4.9 23.1 74 -8.9 16.1
23:30 1021 30.15 850 25.1 -4.8 23.4 72 -9.2 15.5
23:35 1021 30.15 850 25.1 -4.6 23.6 71 -9.1 15.6
23:40 1021 30.15 850 25.1 -4.6 23.7 70 -9.4 15.2
23:45 1021 30.15 850 25.1 -4.6 23.7 70 -9.3 15.3
23:50 1021 30.15 850 25.1 -4.6 23.7 70 -9.4 15.1
23:55 1021 30.15 850 25.1 -4.7 23.6 72 -9 15.8
24:00 1021 30.15 850 25.1 -4.9 23.2 75 -8.7 16.4